createdAt,value
2019-02-16T00:00:29.971Z,58.93
2019-02-16T00:01:29.983Z,58.73
2019-02-16T00:02:29.951Z,58.11
2019-02-16T00:03:29.935Z,58.83
2019-02-16T00:04:29.939Z,58.73
2019-02-16T00:05:29.915Z,58.93
2019-02-16T00:06:29.904Z,59.45
2019-02-16T00:07:29.890Z,58.73
2019-02-16T00:08:29.898Z,58.62
2019-02-16T00:09:29.902Z,58.62
2019-02-16T00:10:29.862Z,58.83
2019-02-16T00:11:29.848Z,58.62
2019-02-16T00:12:29.866Z,59.24
2019-02-16T00:13:29.830Z,58.62
2019-02-16T00:14:29.813Z,58.73
2019-02-16T00:15:29.820Z,58.93
2019-02-16T00:16:29.791Z,59.17
2019-02-16T00:17:29.782Z,59.34
2019-02-16T00:18:29.954Z,59.47
2019-02-16T00:19:29.757Z,59.37
2019-02-16T00:20:29.762Z,59.58
2019-02-16T00:21:29.745Z,59.96
2019-02-16T00:22:29.732Z,59.78
2019-02-16T00:23:29.732Z,59.78
2019-02-16T00:24:29.709Z,60.19
2019-02-16T00:25:29.724Z,59.99
2019-02-16T00:26:29.680Z,59.89
2019-02-16T00:27:29.669Z,59.89
2019-02-16T00:28:29.656Z,59.68
2019-02-16T00:29:29.645Z,60.40
2019-02-16T00:30:29.917Z,59.99
2019-02-16T00:31:29.897Z,59.89
2019-02-16T00:32:29.615Z,60.40
2019-02-16T00:33:29.609Z,60.61
2019-02-16T00:34:29.594Z,59.91
2019-02-16T00:35:29.604Z,60.12
2019-02-16T00:36:29.586Z,60.12
2019-02-16T00:37:29.554Z,59.99
2019-02-16T00:38:29.546Z,60.63
2019-02-16T00:39:29.540Z,60.63
2019-02-16T00:40:29.536Z,60.53
2019-02-16T00:41:29.519Z,60.74
2019-02-16T00:42:29.509Z,60.63
2019-02-16T00:43:29.491Z,59.91
2019-02-16T00:44:30.272Z,59.91
2019-02-16T00:45:29.501Z,60.74
2019-02-16T00:46:29.455Z,59.91
2019-02-16T00:47:29.444Z,59.81
2019-02-16T00:48:29.436Z,60.63
2019-02-16T00:49:29.429Z,59.91
2019-02-16T00:50:29.445Z,60.63
2019-02-16T00:51:29.410Z,60.12
2019-02-16T00:52:30.338Z,60.22
2019-02-16T00:53:29.378Z,60.43
2019-02-16T00:54:29.371Z,60.74
2019-02-16T00:55:29.359Z,60.53
2019-02-16T00:56:29.364Z,60.94
2019-02-16T00:57:29.337Z,60.74
2019-02-16T00:58:29.319Z,60.84
2019-02-16T00:59:29.321Z,60.74
2019-02-16T01:00:30.026Z,61.05
2019-02-16T01:01:29.312Z,60.74
2019-02-16T01:02:29.281Z,60.63
2019-02-16T01:03:29.264Z,60.63
2019-02-16T01:04:29.260Z,60.53
2019-02-16T01:05:29.245Z,60.53
2019-02-16T01:06:29.252Z,60.12
2019-02-16T01:07:29.221Z,60.74
2019-02-16T01:08:29.216Z,60.63
2019-02-16T01:09:29.207Z,60.53
2019-02-16T01:10:29.188Z,60.84
2019-02-16T01:11:29.197Z,60.84
2019-02-16T01:12:29.179Z,60.84
2019-02-16T01:13:29.154Z,60.94
2019-02-16T01:14:29.148Z,60.63
2019-02-16T01:15:29.134Z,60.87
2019-02-16T01:16:29.144Z,60.74
2019-02-16T01:17:29.107Z,60.97
2019-02-16T01:18:29.095Z,61.07
2019-02-16T01:19:29.088Z,61.18
2019-02-16T01:20:29.073Z,60.77
2019-02-16T01:21:29.084Z,60.77
2019-02-16T01:22:29.047Z,60.87
2019-02-16T01:23:29.045Z,60.77
2019-02-16T01:24:29.034Z,61.18
2019-02-16T01:25:29.021Z,61.59
2019-02-16T01:26:29.019Z,61.38
2019-02-16T01:27:29.002Z,61.38
2019-02-16T01:28:28.981Z,61.49
2019-02-16T01:29:28.970Z,61.49
2019-02-16T01:30:28.968Z,61.28
2019-02-16T01:31:28.975Z,61.28
2019-02-16T01:32:28.939Z,61.49
2019-02-16T01:33:28.931Z,61.31
2019-02-16T01:34:28.919Z,61.28
2019-02-16T01:35:28.917Z,61.31
2019-02-16T01:36:28.910Z,61.41
2019-02-16T01:37:28.882Z,61.52
2019-02-16T01:38:28.873Z,61.93
2019-02-16T01:39:28.896Z,61.82
2019-02-16T01:40:28.853Z,61.93
2019-02-16T01:41:28.882Z,61.52
2019-02-16T01:42:28.859Z,61.52
2019-02-16T01:43:28.820Z,62.34
2019-02-16T01:44:28.806Z,61.93
2019-02-16T01:45:28.799Z,62.03
2019-02-16T01:46:28.779Z,61.72
2019-02-16T01:47:28.792Z,62.03
2019-02-16T01:48:28.773Z,62.06
2019-02-16T01:49:28.748Z,61.96
2019-02-16T01:50:28.737Z,61.96
2019-02-16T01:51:31.834Z,62.16
2019-02-16T01:52:28.738Z,62.88
2019-02-16T01:53:28.705Z,62.96
2019-02-16T01:54:28.702Z,62.57
2019-02-16T01:55:28.704Z,62.16
2019-02-16T01:56:28.669Z,62.16
2019-02-16T01:57:28.693Z,62.06
2019-02-16T01:58:28.644Z,62.16
2019-02-16T01:59:28.634Z,62.16
2019-02-16T02:00:28.630Z,62.16
2019-02-16T02:01:28.629Z,62.37
2019-02-16T02:02:28.617Z,63.09
2019-02-16T02:03:28.589Z,62.57
2019-02-16T02:04:28.585Z,63.01
2019-02-16T02:05:28.573Z,63.22
2019-02-16T02:06:28.557Z,62.71
2019-02-16T02:07:28.564Z,62.71
2019-02-16T02:08:28.535Z,63.12
2019-02-16T02:09:28.530Z,62.71
2019-02-16T02:10:28.513Z,62.60
2019-02-16T02:11:28.497Z,62.71
2019-02-16T02:12:28.505Z,62.60
2019-02-16T02:13:28.475Z,62.71
2019-02-16T02:14:28.464Z,62.40
2019-02-16T02:15:28.461Z,63.25
2019-02-16T02:16:28.441Z,62.50
2019-02-16T02:17:28.454Z,62.84
2019-02-16T02:18:28.418Z,62.94
2019-02-16T02:19:28.413Z,62.43
2019-02-16T02:20:28.400Z,62.63
2019-02-16T02:21:28.381Z,63.15
2019-02-16T02:22:28.394Z,62.63
2019-02-16T02:23:28.358Z,63.25
2019-02-16T02:24:28.351Z,63.46
2019-02-16T02:25:28.348Z,62.84
2019-02-16T02:26:28.327Z,63.15
2019-02-16T02:27:28.334Z,63.04
2019-02-16T02:28:28.309Z,63.15
2019-02-16T02:29:28.303Z,63.25
2019-02-16T02:30:28.286Z,63.07
2019-02-16T02:31:28.288Z,63.18
2019-02-16T02:32:28.275Z,63.28
2019-02-16T02:33:28.251Z,63.59
2019-02-16T02:34:28.237Z,63.46
2019-02-16T02:35:28.225Z,63.69
2019-02-16T02:36:28.244Z,63.59
2019-02-16T02:37:28.226Z,63.59
2019-02-16T02:38:28.201Z,63.59
2019-02-16T02:39:28.176Z,63.69
2019-02-16T02:40:28.167Z,63.39
2019-02-16T02:41:28.170Z,63.49
2019-02-16T02:42:28.211Z,63.39
2019-02-16T02:43:28.133Z,63.18
2019-02-16T02:44:28.120Z,63.39
2019-02-16T02:45:28.114Z,63.39
2019-02-16T02:46:28.099Z,63.49
2019-02-16T02:47:28.107Z,63.79
2019-02-16T02:48:28.095Z,63.59
2019-02-16T02:49:28.067Z,63.69
2019-02-16T02:50:28.051Z,63.72
2019-02-16T02:51:28.045Z,63.82
2019-02-16T02:52:28.113Z,63.93
2019-02-16T02:53:31.014Z,64.03
2019-02-16T02:54:28.050Z,64.14
2019-02-16T02:55:27.989Z,63.62
2019-02-16T02:56:28.003Z,64.24
2019-02-16T02:57:28.012Z,64.45
2019-02-16T02:58:27.977Z,64.27
2019-02-16T02:59:27.959Z,64.37
2019-02-16T03:00:27.935Z,64.78
2019-02-16T03:01:28.963Z,64.37
2019-02-16T03:02:27.930Z,64.37
2019-02-16T03:03:27.906Z,64.17
2019-02-16T03:04:27.884Z,64.37
2019-02-16T03:05:27.877Z,64.27
2019-02-16T03:06:27.875Z,64.68
2019-02-16T03:07:27.898Z,64.37
2019-02-16T03:08:27.844Z,64.58
2019-02-16T03:09:27.835Z,65.20
2019-02-16T03:10:27.819Z,65.09
2019-02-16T03:11:27.810Z,65.20
2019-02-16T03:12:27.803Z,64.58
2019-02-16T03:13:27.799Z,64.76
2019-02-16T03:14:27.786Z,64.68
2019-02-16T03:15:27.775Z,64.37
2019-02-16T03:16:27.761Z,64.78
2019-02-16T03:17:27.746Z,65.09
2019-02-16T03:18:27.755Z,64.68
2019-02-16T03:19:27.721Z,64.48
2019-02-16T03:20:27.710Z,65.20
2019-02-16T03:21:27.698Z,64.58
2019-02-16T03:22:27.687Z,64.51
2019-02-16T03:23:27.684Z,64.51
2019-02-16T03:24:27.686Z,64.68
2019-02-16T03:25:27.666Z,64.61
2019-02-16T03:26:27.649Z,65.23
2019-02-16T03:27:27.624Z,65.23
2019-02-16T03:28:27.647Z,65.02
2019-02-16T03:29:27.596Z,64.92
2019-02-16T03:30:27.590Z,65.12
2019-02-16T03:31:27.588Z,65.23
2019-02-16T03:32:27.595Z,65.05
2019-02-16T03:33:27.588Z,65.26
2019-02-16T03:34:27.563Z,65.67
2019-02-16T03:35:27.540Z,65.88
2019-02-16T03:36:27.526Z,65.88
2019-02-16T03:37:27.512Z,65.78
2019-02-16T03:38:27.518Z,65.67
2019-02-16T03:39:27.488Z,65.88
2019-02-16T03:40:27.481Z,66.29
2019-02-16T03:41:27.472Z,66.29
2019-02-16T03:42:27.469Z,66.19
2019-02-16T03:43:27.474Z,65.78
2019-02-16T03:44:27.433Z,66.19
2019-02-16T03:45:27.424Z,65.99
2019-02-16T03:46:27.416Z,66.09
2019-02-16T03:47:27.396Z,66.32
2019-02-16T03:48:27.428Z,66.32
2019-02-16T03:49:27.379Z,66.09
2019-02-16T03:50:27.361Z,66.29
2019-02-16T03:51:27.354Z,66.29
2019-02-16T03:52:27.370Z,66.42
2019-02-16T03:53:27.340Z,66.22
2019-02-16T03:54:27.353Z,66.63
2019-02-16T03:55:27.315Z,66.63
2019-02-16T03:56:27.297Z,66.32
2019-02-16T03:57:27.288Z,66.53
2019-02-16T03:58:27.276Z,67.36
2019-02-16T03:59:27.291Z,67.88
2019-02-16T04:00:27.261Z,67.15
2019-02-16T04:01:27.272Z,66.63
2019-02-16T04:02:27.232Z,66.29
2019-02-16T04:03:27.238Z,66.22
2019-02-16T04:04:27.232Z,66.74
2019-02-16T04:05:27.200Z,66.81
2019-02-16T04:06:27.186Z,66.42
2019-02-16T04:07:27.186Z,66.63
2019-02-16T04:08:27.171Z,67.05
2019-02-16T04:09:27.359Z,66.63
2019-02-16T04:10:27.140Z,66.60
2019-02-16T04:11:27.136Z,66.12
2019-02-16T04:12:27.125Z,66.12
2019-02-16T04:13:27.113Z,66.53
2019-02-16T04:14:27.393Z,66.53
2019-02-16T04:15:27.092Z,66.63
2019-02-16T04:16:27.074Z,66.02
2019-02-16T04:17:27.067Z,66.02
2019-02-16T04:18:27.054Z,66.53
2019-02-16T04:19:27.078Z,66.84
2019-02-16T04:20:27.037Z,66.84
2019-02-16T04:21:27.024Z,67.05
2019-02-16T04:22:27.020Z,66.53
2019-02-16T04:23:27.003Z,66.53
2019-02-16T04:24:26.987Z,66.42
2019-02-16T04:25:26.990Z,66.32
2019-02-16T04:26:26.969Z,66.12
2019-02-16T04:27:26.960Z,67.05
2019-02-16T04:28:26.950Z,67.25
2019-02-16T04:29:26.937Z,66.42
2019-02-16T04:30:26.956Z,66.42
2019-02-16T04:31:26.922Z,66.74
2019-02-16T04:32:26.913Z,66.63
2019-02-16T04:33:26.886Z,67.15
2019-02-16T04:34:26.886Z,66.63
2019-02-16T04:35:26.895Z,66.53
2019-02-16T04:36:26.853Z,66.84
2019-02-16T04:37:26.843Z,66.53
2019-02-16T04:38:26.841Z,66.53
2019-02-16T04:39:26.826Z,66.12
2019-02-16T04:40:26.850Z,66.74
2019-02-16T04:41:26.809Z,66.74
2019-02-16T04:42:26.783Z,66.22
2019-02-16T04:43:26.793Z,66.53
2019-02-16T04:44:26.768Z,66.74
2019-02-16T04:45:26.794Z,67.25
2019-02-16T04:46:26.740Z,66.12
2019-02-16T04:47:26.743Z,67.25
2019-02-16T04:48:26.728Z,66.53
2019-02-16T04:49:26.725Z,67.46
2019-02-16T04:50:26.719Z,67.15
2019-02-16T04:51:26.689Z,67.36
2019-02-16T04:52:34.237Z,67.05
2019-02-16T04:53:27.683Z,66.63
2019-02-16T04:54:26.655Z,66.63
2019-02-16T04:55:26.662Z,66.84
2019-02-16T04:56:26.636Z,67.15
2019-02-16T04:57:26.635Z,66.32
2019-02-16T04:58:26.613Z,67.25
2019-02-16T04:59:26.613Z,67.36
2019-02-16T05:00:26.644Z,66.02
2019-02-16T05:01:26.604Z,67.46
2019-02-16T05:02:26.576Z,66.63
2019-02-16T05:03:26.565Z,66.22
2019-02-16T05:04:26.543Z,66.22
2019-02-16T05:05:26.555Z,66.32
2019-02-16T05:06:26.531Z,66.63
2019-02-16T05:07:26.512Z,66.22
2019-02-16T05:08:26.495Z,66.32
2019-02-16T05:09:26.485Z,66.12
2019-02-16T05:10:26.485Z,66.94
2019-02-16T05:11:26.487Z,66.84
2019-02-16T05:12:26.457Z,66.74
2019-02-16T05:13:26.452Z,66.22
2019-02-16T05:14:26.454Z,66.32
2019-02-16T05:15:26.422Z,66.32
2019-02-16T05:16:26.447Z,66.42
2019-02-16T05:17:26.399Z,66.32
2019-02-16T05:18:26.398Z,66.74
2019-02-16T05:19:26.406Z,66.35
2019-02-16T05:20:26.364Z,66.05
2019-02-16T05:21:26.372Z,66.77
2019-02-16T05:22:26.380Z,67.05
2019-02-16T05:23:26.339Z,66.15
2019-02-16T05:24:26.320Z,66.77
2019-02-16T05:25:26.313Z,66.63
2019-02-16T05:26:26.322Z,66.63
2019-02-16T05:27:26.287Z,66.74
2019-02-16T05:28:26.275Z,66.87
2019-02-16T05:29:26.267Z,66.74
2019-02-16T05:30:26.257Z,67.25
2019-02-16T05:31:26.270Z,66.77
2019-02-16T05:32:26.230Z,66.87
2019-02-16T05:33:26.233Z,66.87
2019-02-16T05:34:26.205Z,66.77
2019-02-16T05:35:26.208Z,66.74
2019-02-16T05:36:26.212Z,66.25
2019-02-16T05:37:26.177Z,66.53
2019-02-16T05:38:26.168Z,66.05
2019-02-16T05:39:26.163Z,66.84
2019-02-16T05:40:26.148Z,66.15
2019-02-16T05:41:26.143Z,66.66
2019-02-16T05:42:26.127Z,66.25
2019-02-16T05:43:26.121Z,66.32
2019-02-16T05:44:26.111Z,66.25
2019-02-16T05:45:26.096Z,66.22
2019-02-16T05:46:26.116Z,66.56
2019-02-16T05:47:26.074Z,66.35
2019-02-16T05:48:26.060Z,66.77
2019-02-16T05:49:26.058Z,66.25
2019-02-16T05:50:26.034Z,66.05
2019-02-16T05:51:26.038Z,66.97
2019-02-16T05:52:26.024Z,67.08
2019-02-16T05:53:25.994Z,66.77
2019-02-16T05:54:25.996Z,67.08
2019-02-16T05:55:26.038Z,66.97
2019-02-16T05:56:25.963Z,66.05
2019-02-16T05:57:25.996Z,66.25
2019-02-16T05:58:25.954Z,66.15
2019-02-16T05:59:25.927Z,66.25
2019-02-16T06:00:25.916Z,66.56
2019-02-16T06:01:25.920Z,66.35
2019-02-16T06:02:25.930Z,66.77
2019-02-16T06:03:25.892Z,66.66
2019-02-16T06:04:25.878Z,66.15
2019-02-16T06:05:25.862Z,66.77
2019-02-16T06:06:25.858Z,66.66
2019-02-16T06:07:25.889Z,66.77
2019-02-16T06:08:25.831Z,66.66
2019-02-16T06:09:25.834Z,66.90
2019-02-16T06:10:25.805Z,66.66
2019-02-16T06:11:25.812Z,66.69
2019-02-16T06:12:25.815Z,66.97
2019-02-16T06:13:25.792Z,66.49
2019-02-16T06:14:25.767Z,66.66
2019-02-16T06:15:25.776Z,66.15
2019-02-16T06:16:25.744Z,66.25
2019-02-16T06:17:25.773Z,66.66
2019-02-16T06:18:25.760Z,66.66
2019-02-16T06:19:25.720Z,66.66
2019-02-16T06:20:25.939Z,66.56
2019-02-16T06:21:25.726Z,66.97
2019-02-16T06:22:25.718Z,66.77
2019-02-16T06:23:25.669Z,66.35
2019-02-16T06:24:25.661Z,66.46
2019-02-16T06:25:25.665Z,66.56
2019-02-16T06:26:25.649Z,66.46
2019-02-16T06:27:25.630Z,66.77
2019-02-16T06:28:25.663Z,66.56
2019-02-16T06:29:25.632Z,66.59
2019-02-16T06:30:25.636Z,66.69
2019-02-16T06:31:25.577Z,66.97
2019-02-16T06:32:25.579Z,66.77
2019-02-16T06:33:25.614Z,66.56
2019-02-16T06:34:25.584Z,67.21
2019-02-16T06:35:25.528Z,66.56
2019-02-16T06:36:25.536Z,66.66
2019-02-16T06:37:25.524Z,66.97
2019-02-16T06:38:25.533Z,67.29
2019-02-16T06:39:25.536Z,66.87
2019-02-16T06:40:25.535Z,66.97
2019-02-16T06:41:25.463Z,67.00
2019-02-16T06:42:25.457Z,66.77
2019-02-16T06:43:25.472Z,67.32
2019-02-16T06:44:25.442Z,66.46
2019-02-16T06:45:25.426Z,66.87
2019-02-16T06:46:25.410Z,66.87
2019-02-16T06:47:25.415Z,66.97
2019-02-16T06:48:25.442Z,66.66
2019-02-16T06:49:25.380Z,66.66
2019-02-16T06:50:25.379Z,66.66
2019-02-16T06:51:25.407Z,66.77
2019-02-16T06:52:25.335Z,66.77
2019-02-16T06:53:25.343Z,66.77
2019-02-16T06:54:25.321Z,67.29
2019-02-16T06:55:25.310Z,66.77
2019-02-16T06:56:25.303Z,66.56
2019-02-16T06:57:25.304Z,66.66
2019-02-16T06:58:25.309Z,66.25
2019-02-16T06:59:25.265Z,66.97
2019-02-16T07:00:25.249Z,66.77
2019-02-16T07:01:25.260Z,67.18
2019-02-16T07:02:25.234Z,66.80
2019-02-16T07:03:25.218Z,66.66
2019-02-16T07:04:25.231Z,66.87
2019-02-16T07:05:25.194Z,68.22
2019-02-16T07:06:25.188Z,75.26
2019-02-16T07:07:25.185Z,73.60
2019-02-16T07:08:25.175Z,70.98
2019-02-16T07:09:25.172Z,72.43
2019-02-16T07:10:25.140Z,73.43
2019-02-16T07:11:25.138Z,72.81
2019-02-16T07:12:25.126Z,69.98
2019-02-16T07:13:25.107Z,68.02
2019-02-16T07:14:25.110Z,67.91
2019-02-16T07:15:25.089Z,66.23
2019-02-16T07:16:25.076Z,65.09
2019-02-16T07:17:25.070Z,64.48
2019-02-16T07:18:25.057Z,63.85
2019-02-16T07:19:25.074Z,63.99
2019-02-16T07:20:25.035Z,64.06
2019-02-16T07:21:25.012Z,64.09
2019-02-16T07:22:25.007Z,63.89
2019-02-16T07:23:24.998Z,64.09
2019-02-16T07:24:25.013Z,63.99
2019-02-16T07:25:24.966Z,64.20
2019-02-16T07:26:24.966Z,63.89
2019-02-16T07:27:24.950Z,63.99
2019-02-16T07:28:24.946Z,64.51
2019-02-16T07:29:24.950Z,64.51
2019-02-16T07:30:24.923Z,64.53
2019-02-16T07:31:24.900Z,64.64
2019-02-16T07:32:24.929Z,64.32
2019-02-16T07:33:24.888Z,64.53
2019-02-16T07:34:24.904Z,65.12
2019-02-16T07:35:24.866Z,64.84
2019-02-16T07:36:24.867Z,64.32
2019-02-16T07:37:24.837Z,64.53
2019-02-16T07:38:24.826Z,64.74
2019-02-16T07:39:24.837Z,64.64
2019-02-16T07:40:24.797Z,64.23
2019-02-16T07:41:24.797Z,64.32
2019-02-16T07:42:24.777Z,64.32
2019-02-16T07:43:24.766Z,65.05
2019-02-16T07:44:24.773Z,64.43
2019-02-16T07:45:24.740Z,64.43
2019-02-16T07:46:24.733Z,65.05
2019-02-16T07:47:24.715Z,64.43
2019-02-16T07:48:24.713Z,64.32
2019-02-16T07:49:24.714Z,64.12
2019-02-16T07:50:24.686Z,64.32
2019-02-16T07:51:24.675Z,64.23
2019-02-16T07:52:24.667Z,64.23
2019-02-16T07:53:31.167Z,64.64
2019-02-16T07:54:25.666Z,64.32
2019-02-16T07:55:24.627Z,64.30
2019-02-16T07:56:24.634Z,64.30
2019-02-16T07:57:24.608Z,64.09
2019-02-16T07:58:24.599Z,64.09
2019-02-16T07:59:24.587Z,63.99
2019-02-16T08:00:24.587Z,63.68
2019-02-16T08:01:24.743Z,63.37
2019-02-16T08:02:24.558Z,63.16
2019-02-16T08:03:24.531Z,63.37
2019-02-16T08:04:24.524Z,63.68
2019-02-16T08:05:24.528Z,63.34
2019-02-16T08:06:24.502Z,62.72
2019-02-16T08:07:24.490Z,63.16
2019-02-16T08:08:24.489Z,62.93
2019-02-16T08:09:24.466Z,67.16
2019-02-16T08:10:24.471Z,66.20
2019-02-16T08:11:24.450Z,64.65
2019-02-16T08:12:24.433Z,63.31
2019-02-16T08:13:24.423Z,62.90
2019-02-16T08:14:24.406Z,62.07
2019-02-16T08:15:24.418Z,62.15
2019-02-16T08:16:24.389Z,61.66
2019-02-16T08:17:24.375Z,61.32
2019-02-16T08:18:24.366Z,61.73
2019-02-16T08:19:24.356Z,62.25
2019-02-16T08:20:24.362Z,61.63
2019-02-16T08:21:24.332Z,61.63
2019-02-16T08:22:24.318Z,61.94
2019-02-16T08:23:24.308Z,61.73
2019-02-16T08:24:24.300Z,61.83
2019-02-16T08:25:24.310Z,61.42
2019-02-16T08:26:24.277Z,61.01
2019-02-16T08:27:24.262Z,60.80
2019-02-16T08:28:24.251Z,60.39
2019-02-16T08:29:24.253Z,61.01
2019-02-16T08:30:24.228Z,61.01
2019-02-16T08:31:24.367Z,60.98
2019-02-16T08:32:24.207Z,60.88
2019-02-16T08:33:24.193Z,60.88
2019-02-16T08:34:24.182Z,60.26
2019-02-16T08:35:24.174Z,60.57
2019-02-16T08:36:24.182Z,60.47
2019-02-16T08:37:24.150Z,60.47
2019-02-16T08:38:24.142Z,60.57
2019-02-16T08:39:24.134Z,60.02
2019-02-16T08:40:24.114Z,59.82
2019-02-16T08:41:24.132Z,59.51
2019-02-16T08:42:24.096Z,59.51
2019-02-16T08:43:24.091Z,59.51
2019-02-16T08:44:24.072Z,59.41
2019-02-16T08:45:24.073Z,59.17
2019-02-16T08:46:24.067Z,58.86
2019-02-16T08:47:24.039Z,58.65
2019-02-16T08:48:24.081Z,59.07
2019-02-16T08:49:24.015Z,58.73
2019-02-16T08:50:24.002Z,58.84
2019-02-16T08:51:24.015Z,58.22
2019-02-16T08:52:23.987Z,58.22
2019-02-16T08:53:23.966Z,57.81
2019-02-16T08:54:23.974Z,56.98
2019-02-16T08:55:23.947Z,57.16
2019-02-16T08:56:23.961Z,56.23
2019-02-16T08:57:23.928Z,56.65
2019-02-16T08:58:23.920Z,56.95
2019-02-16T08:59:23.901Z,56.52
2019-02-16T09:00:23.897Z,56.21
2019-02-16T09:01:23.952Z,55.80
2019-02-16T09:02:23.871Z,55.90
2019-02-16T09:03:23.857Z,56.21
2019-02-16T09:04:23.895Z,55.87
2019-02-16T09:05:23.839Z,57.73
2019-02-16T09:06:23.840Z,55.36
2019-02-16T09:07:23.821Z,54.43
2019-02-16T09:08:23.800Z,54.51
2019-02-16T09:09:23.805Z,54.10
2019-02-16T09:10:23.782Z,53.89
2019-02-16T09:11:23.808Z,54.10
2019-02-16T09:12:23.759Z,53.58
2019-02-16T09:13:23.744Z,54.07
2019-02-16T09:14:23.765Z,53.15
2019-02-16T09:15:23.730Z,52.94
2019-02-16T09:16:23.717Z,52.94
2019-02-16T09:17:23.735Z,52.84
2019-02-16T09:18:23.695Z,52.94
2019-02-16T09:19:23.687Z,52.40
2019-02-16T09:20:23.669Z,52.40
2019-02-16T09:21:23.658Z,52.30
2019-02-16T09:22:23.673Z,51.68
2019-02-16T09:23:23.632Z,51.48
2019-02-16T09:24:23.625Z,51.56
2019-02-16T09:25:23.620Z,51.45
2019-02-16T09:26:23.598Z,51.56
2019-02-16T09:27:23.610Z,50.84
2019-02-16T09:28:23.580Z,51.33
2019-02-16T09:29:23.567Z,50.92
2019-02-16T09:30:23.558Z,50.82
2019-02-16T09:31:23.553Z,50.92
2019-02-16T09:32:23.551Z,50.82
2019-02-16T09:33:23.521Z,50.51
2019-02-16T09:34:23.509Z,49.99
2019-02-16T09:35:23.495Z,49.97
2019-02-16T09:36:23.495Z,49.48
2019-02-16T09:37:23.499Z,51.51
2019-02-16T09:38:23.472Z,50.28
2019-02-16T09:39:23.457Z,49.77
2019-02-16T09:40:23.461Z,49.56
2019-02-16T09:41:23.443Z,49.95
2019-02-16T09:42:23.447Z,48.92
2019-02-16T09:43:23.436Z,49.43
2019-02-16T09:44:23.397Z,48.41
2019-02-16T09:45:23.391Z,48.31
2019-02-16T09:46:23.373Z,48.18
2019-02-16T09:47:23.400Z,48.18
2019-02-16T09:48:23.360Z,47.88
2019-02-16T09:49:23.382Z,47.26
2019-02-16T09:50:23.322Z,48.18
2019-02-16T09:51:23.328Z,46.95
2019-02-16T09:52:23.379Z,47.05
2019-02-16T09:53:23.449Z,46.75
2019-02-16T09:54:23.282Z,47.56
2019-02-16T09:55:23.270Z,47.77
2019-02-16T09:56:23.260Z,47.85
2019-02-16T09:57:23.297Z,47.75
2019-02-16T09:58:23.234Z,47.64
2019-02-16T09:59:23.222Z,47.34
2019-02-16T10:00:23.217Z,46.93
2019-02-16T10:01:23.415Z,52.15
2019-02-16T10:02:23.187Z,54.49
2019-02-16T10:03:23.207Z,52.54
2019-02-16T10:04:23.170Z,52.34
2019-02-16T10:05:23.160Z,51.42
2019-02-16T10:06:23.147Z,50.88
2019-02-16T10:07:23.564Z,48.52
2019-02-16T10:08:23.145Z,50.78
2019-02-16T10:09:23.139Z,49.85
2019-02-16T10:10:23.105Z,50.85
2019-02-16T10:11:23.089Z,48.40
2019-02-16T10:12:23.075Z,47.35
2019-02-16T10:13:23.081Z,46.23
2019-02-16T10:14:23.055Z,47.45
2019-02-16T10:15:23.036Z,48.68
2019-02-16T10:16:23.033Z,46.64
2019-02-16T10:17:23.057Z,46.82
2019-02-16T10:18:23.034Z,44.98
2019-02-16T10:19:22.993Z,47.53
2019-02-16T10:20:22.995Z,45.18
2019-02-16T10:21:22.975Z,44.17
2019-02-16T10:22:22.966Z,44.37
2019-02-16T10:23:22.965Z,43.65
2019-02-16T10:24:22.944Z,43.43
2019-02-16T10:25:22.928Z,42.94
2019-02-16T10:26:22.918Z,41.89
2019-02-16T10:27:22.909Z,42.20
2019-02-16T10:28:22.913Z,42.00
2019-02-16T10:29:22.884Z,41.69
2019-02-16T10:30:22.878Z,41.59
2019-02-16T10:31:22.994Z,43.22
2019-02-16T10:32:22.847Z,42.91
2019-02-16T10:33:22.865Z,43.41
2019-02-16T10:34:22.823Z,43.41
2019-02-16T10:35:22.822Z,42.38
2019-02-16T10:36:22.813Z,41.67
2019-02-16T10:37:22.872Z,41.47
2019-02-16T10:38:22.808Z,41.26
2019-02-16T10:39:22.781Z,41.16
2019-02-16T10:40:22.760Z,41.06
2019-02-16T10:41:22.756Z,41.56
2019-02-16T10:42:22.746Z,41.67
2019-02-16T10:43:22.941Z,41.06
2019-02-16T10:44:22.716Z,41.26
2019-02-16T10:45:22.713Z,41.16
2019-02-16T10:46:22.701Z,40.73
2019-02-16T10:47:22.679Z,41.35
2019-02-16T10:48:22.698Z,40.61
2019-02-16T10:49:22.660Z,40.32
2019-02-16T10:50:22.658Z,40.63
2019-02-16T10:51:22.634Z,40.51
2019-02-16T10:52:22.631Z,40.30
2019-02-16T10:53:22.628Z,40.10
2019-02-16T10:54:28.068Z,40.00
2019-02-16T10:55:23.615Z,40.81
2019-02-16T10:56:22.582Z,40.30
2019-02-16T10:57:22.568Z,40.41
2019-02-16T10:58:22.558Z,40.00
2019-02-16T10:59:22.571Z,40.20
2019-02-16T11:00:22.531Z,40.39
2019-02-16T11:01:22.578Z,42.65
2019-02-16T11:02:22.519Z,40.08
2019-02-16T11:03:22.509Z,39.45
2019-02-16T11:04:22.511Z,39.26
2019-02-16T11:05:22.489Z,39.87
2019-02-16T11:06:22.475Z,39.98
2019-02-16T11:07:22.466Z,39.26
2019-02-16T11:08:22.444Z,40.08
2019-02-16T11:09:22.455Z,39.57
2019-02-16T11:10:22.426Z,39.35
2019-02-16T11:11:22.410Z,39.47
2019-02-16T11:12:22.406Z,39.96
2019-02-16T11:13:22.389Z,39.86
2019-02-16T11:14:22.399Z,39.25
2019-02-16T11:15:22.367Z,39.86
2019-02-16T11:16:22.360Z,39.13
2019-02-16T11:17:22.341Z,39.53
2019-02-16T11:18:22.342Z,38.82
2019-02-16T11:19:22.349Z,38.82
2019-02-16T11:20:22.322Z,38.31
2019-02-16T11:21:22.298Z,38.11
2019-02-16T11:22:22.285Z,38.62
2019-02-16T11:23:22.280Z,38.21
2019-02-16T11:24:22.298Z,38.70
2019-02-16T11:25:22.250Z,38.31
2019-02-16T11:26:22.243Z,38.21
2019-02-16T11:27:22.237Z,38.72
2019-02-16T11:28:22.217Z,38.21
2019-02-16T11:29:22.225Z,38.49
2019-02-16T11:30:22.231Z,38.51
2019-02-16T11:31:22.185Z,38.19
2019-02-16T11:32:22.185Z,38.21
2019-02-16T11:33:22.161Z,38.11
2019-02-16T11:34:22.180Z,38.62
2019-02-16T11:35:22.168Z,38.19
2019-02-16T11:36:22.124Z,38.80
2019-02-16T11:37:22.117Z,38.29
2019-02-16T11:38:22.102Z,38.09
2019-02-16T11:39:22.091Z,37.99
2019-02-16T11:40:23.500Z,37.58
2019-02-16T11:41:22.070Z,37.68
2019-02-16T11:42:22.060Z,37.79
2019-02-16T11:43:22.060Z,38.49
2019-02-16T11:44:22.029Z,37.68
2019-02-16T11:45:22.042Z,37.77
2019-02-16T11:46:22.010Z,37.79
2019-02-16T11:47:22.001Z,38.68
2019-02-16T11:48:21.986Z,38.70
2019-02-16T11:49:21.978Z,37.79
2019-02-16T11:50:21.984Z,37.36
2019-02-16T11:51:21.955Z,38.07
2019-02-16T11:52:21.935Z,37.79
2019-02-16T11:53:21.931Z,37.66
2019-02-16T11:54:21.923Z,38.07
2019-02-16T11:55:21.922Z,37.77
2019-02-16T11:56:21.894Z,38.06
2019-02-16T11:57:21.889Z,37.14
2019-02-16T11:58:21.875Z,37.24
2019-02-16T11:59:21.883Z,36.93
2019-02-16T12:00:21.882Z,37.24
2019-02-16T12:01:21.838Z,37.24
2019-02-16T12:02:21.826Z,37.24
2019-02-16T12:03:21.815Z,37.45
2019-02-16T12:04:21.806Z,37.54
2019-02-16T12:05:21.844Z,36.82
2019-02-16T12:06:21.790Z,36.21
2019-02-16T12:07:21.768Z,36.92
2019-02-16T12:08:21.779Z,36.92
2019-02-16T12:09:21.743Z,37.73
2019-02-16T12:10:21.755Z,37.32
2019-02-16T12:11:21.727Z,37.43
2019-02-16T12:12:21.717Z,36.82
2019-02-16T12:13:21.701Z,37.53
2019-02-16T12:14:21.689Z,36.90
2019-02-16T12:15:21.707Z,36.90
2019-02-16T12:16:21.660Z,36.90
2019-02-16T12:17:21.661Z,36.29
2019-02-16T12:18:21.666Z,36.80
2019-02-16T12:19:21.630Z,36.90
2019-02-16T12:20:21.615Z,36.19
2019-02-16T12:21:21.627Z,36.39
2019-02-16T12:22:21.595Z,36.19
2019-02-16T12:23:21.584Z,36.69
2019-02-16T12:24:21.572Z,36.80
2019-02-16T12:25:21.561Z,36.29
2019-02-16T12:26:21.590Z,37.21
2019-02-16T12:27:21.532Z,36.08
2019-02-16T12:28:21.695Z,36.80
2019-02-16T12:29:21.511Z,36.80
2019-02-16T12:30:21.503Z,36.49
2019-02-16T12:31:21.530Z,35.97
2019-02-16T12:32:21.478Z,35.97
2019-02-16T12:33:21.473Z,36.07
2019-02-16T12:34:21.458Z,36.88
2019-02-16T12:35:21.514Z,36.07
2019-02-16T12:36:22.032Z,35.97
2019-02-16T12:37:21.448Z,36.19
2019-02-16T12:38:21.412Z,36.38
2019-02-16T12:39:21.400Z,36.58
2019-02-16T12:40:21.390Z,36.58
2019-02-16T12:41:21.382Z,36.99
2019-02-16T12:42:21.464Z,36.47
2019-02-16T12:43:21.362Z,36.07
2019-02-16T12:44:21.342Z,35.77
2019-02-16T12:45:21.581Z,35.66
2019-02-16T12:46:21.320Z,35.46
2019-02-16T12:47:21.325Z,35.77
2019-02-16T12:48:21.303Z,35.56
2019-02-16T12:49:21.295Z,36.07
2019-02-16T12:50:21.278Z,35.46
2019-02-16T12:51:21.275Z,35.85
2019-02-16T12:52:21.283Z,35.85